sensor_id;sensor_type;location;lat;lon;timestamp;pressure;altitude;pressure_sealevel;temperature;humidity
50250;BME280;36133;42.522;27.456;2022-08-19T00:01:42;100708.16;;;26.21;67.61
50250;BME280;36133;42.522;27.456;2022-08-19T00:04:09;100642.91;;;26.15;66.26
50250;BME280;36133;42.522;27.456;2022-08-19T00:06:37;100790.50;;;26.92;66.34
50250;BME280;36133;42.522;27.456;2022-08-19T00:09:05;100608.69;;;25.48;67.79
50250;BME280;36133;42.522;27.456;2022-08-19T00:11:31;100717.06;;;26.18;67.69
50250;BME280;36133;42.522;27.456;2022-08-19T00:13:57;100718.78;;;26.09;67.26
50250;BME280;36133;42.522;27.456;2022-08-19T00:16:23;100721.72;;;25.88;67.87
50250;BME280;36133;42.522;27.456;2022-08-19T00:18:49;100761.34;;;26.47;66.51
50250;BME280;36133;42.522;27.456;2022-08-19T00:21:15;100677.47;;;25.88;66.63
50250;BME280;36133;42.522;27.456;2022-08-19T00:23:41;100530.66;;;24.88;66.50
50250;BME280;36133;42.522;27.456;2022-08-19T00:26:09;100505.94;;;24.72;65.81
50250;BME280;36133;42.522;27.456;2022-08-19T00:28:35;100779.66;;;26.43;65.54
50250;BME280;36133;42.522;27.456;2022-08-19T00:31:06;100491.91;;;25.08;62.88
50250;BME280;36133;42.522;27.456;2022-08-19T00:33:33;100585.66;;;26.39;60.50
50250;BME280;36133;42.522;27.456;2022-08-19T00:36:04;100631.47;;;26.93;58.90
50250;BME280;36133;42.522;27.456;2022-08-19T00:38:31;100577.38;;;26.39;59.29
50250;BME280;36133;42.522;27.456;2022-08-19T00:40:57;100783.91;;;27.92;58.15
50250;BME280;36133;42.522;27.456;2022-08-19T00:43:26;100562.53;;;26.06;59.32
50250;BME280;36133;42.522;27.456;2022-08-19T00:45:52;100793.41;;;26.77;60.95
50250;BME280;36133;42.522;27.456;2022-08-19T00:48:19;100788.63;;;27.92;57.63
50250;BME280;36133;42.522;27.456;2022-08-19T00:50:47;100676.81;;;27.40;57.01
50250;BME280;36133;42.522;27.456;2022-08-19T00:53:16;100608.59;;;26.64;57.63
50250;BME280;36133;42.522;27.456;2022-08-19T00:55:49;100798.75;;;27.21;59.46
50250;BME280;36133;42.522;27.456;2022-08-19T00:58:17;100789.69;;;27.15;59.94
50250;BME280;36133;42.522;27.456;2022-08-19T01:00:44;100563.50;;;25.62;60.38
50250;BME280;36133;42.522;27.456;2022-08-19T01:03:14;100296.63;;;23.77;61.04
50250;BME280;36133;42.522;27.456;2022-08-19T01:05:42;100632.53;;;26.31;59.72
50250;BME280;36133;42.522;27.456;2022-08-19T01:08:08;100754.50;;;27.35;59.10
50250;BME280;36133;42.522;27.456;2022-08-19T01:10:39;100740.19;;;27.28;58.79
50250;BME280;36133;42.522;27.456;2022-08-19T01:13:05;100754.00;;;27.52;58.38
50250;BME280;36133;42.522;27.456;2022-08-19T01:15:40;100783.81;;;27.60;58.98
50250;BME280;36133;42.522;27.456;2022-08-19T01:18:10;100782.25;;;27.72;57.94
50250;BME280;36133;42.522;27.456;2022-08-19T01:20:39;100792.91;;;28.03;57.03
50250;BME280;36133;42.522;27.456;2022-08-19T01:23:05;100682.06;;;27.41;56.57
50250;BME280;36133;42.522;27.456;2022-08-19T01:25:35;100595.66;;;27.02;55.99
50250;BME280;36133;42.522;27.456;2022-08-19T01:28:03;100747.47;;;27.99;55.70
50250;BME280;36133;42.522;27.456;2022-08-19T01:30:31;100575.88;;;26.90;55.69
50250;BME280;36133;42.522;27.456;2022-08-19T01:32:58;100801.06;;;28.46;55.17
50250;BME280;36133;42.522;27.456;2022-08-19T01:35:29;100771.31;;;28.00;55.83
50250;BME280;36133;42.522;27.456;2022-08-19T01:37:58;100699.94;;;27.11;56.65
50250;BME280;36133;42.522;27.456;2022-08-19T01:40:28;100810.72;;;27.40;57.85
50250;BME280;36133;42.522;27.456;2022-08-19T01:42:56;100614.69;;;26.66;56.77
50250;BME280;36133;42.522;27.456;2022-08-19T01:45:23;100607.91;;;26.05;58.24
50250;BME280;36133;42.522;27.456;2022-08-19T01:47:49;100733.75;;;26.66;58.71
50250;BME280;36133;42.522;27.456;2022-08-19T01:50:15;100814.47;;;27.26;57.82
50250;BME280;36133;42.522;27.456;2022-08-19T01:52:43;100578.22;;;26.35;57.03
50250;BME280;36133;42.522;27.456;2022-08-19T01:55:14;100599.59;;;26.53;56.41
50250;BME280;36133;42.522;27.456;2022-08-19T01:57:42;100578.84;;;26.08;56.53
50250;BME280;36133;42.522;27.456;2022-08-19T02:00:12;100787.59;;;27.88;56.06
50250;BME280;36133;42.522;27.456;2022-08-19T02:02:40;100760.09;;;27.11;56.88
50250;BME280;36133;42.522;27.456;2022-08-19T02:05:05;100734.19;;;26.97;57.66
50250;BME280;36133;42.522;27.456;2022-08-19T02:07:34;100662.84;;;26.65;57.31
50250;BME280;36133;42.522;27.456;2022-08-19T02:10:09;100733.44;;;26.91;58.03
50250;BME280;36133;42.522;27.456;2022-08-19T02:12:35;100654.69;;;26.78;56.58
50250;BME280;36133;42.522;27.456;2022-08-19T02:15:02;100754.59;;;26.82;58.12
50250;BME280;36133;42.522;27.456;2022-08-19T02:17:28;100658.22;;;25.78;59.99
50250;BME280;36133;42.522;27.456;2022-08-19T02:19:57;100784.69;;;26.65;60.16
50250;BME280;36133;42.522;27.456;2022-08-19T02:22:25;100706.78;;;26.95;57.74
50250;BME280;36133;42.522;27.456;2022-08-19T02:24:51;100725.88;;;26.49;58.92
50250;BME280;36133;42.522;27.456;2022-08-19T02:27:17;100673.81;;;26.51;58.05
50250;BME280;36133;42.522;27.456;2022-08-19T02:29:43;100615.03;;;26.59;56.73
50250;BME280;36133;42.522;27.456;2022-08-19T02:32:08;100681.81;;;26.76;57.54
50250;BME280;36133;42.522;27.456;2022-08-19T02:34:34;100736.56;;;26.32;60.14
50250;BME280;36133;42.522;27.456;2022-08-19T02:36:59;100692.19;;;26.13;59.72
50250;BME280;36133;42.522;27.456;2022-08-19T02:39:25;100744.16;;;26.74;59.53
50250;BME280;36133;42.522;27.456;2022-08-19T02:41:51;100752.66;;;26.58;59.73
50250;BME280;36133;42.522;27.456;2022-08-19T02:44:17;100631.50;;;25.97;59.66
50250;BME280;36133;42.522;27.456;2022-08-19T02:46:45;100779.94;;;26.94;59.67
50250;BME280;36133;42.522;27.456;2022-08-19T02:49:11;100749.44;;;26.46;61.01
50250;BME280;36133;42.522;27.456;2022-08-19T02:51:40;100784.66;;;27.18;60.78
50250;BME280;36133;42.522;27.456;2022-08-19T02:54:07;100798.28;;;26.90;62.30
50250;BME280;36133;42.522;27.456;2022-08-19T02:56:35;100756.63;;;27.43;59.58
50250;BME280;36133;42.522;27.456;2022-08-19T02:59:01;100788.78;;;27.82;59.23
50250;BME280;36133;42.522;27.456;2022-08-19T03:01:29;100813.84;;;27.77;59.84
50250;BME280;36133;42.522;27.456;2022-08-19T03:03:56;100668.53;;;26.97;59.59
50250;BME280;36133;42.522;27.456;2022-08-19T03:06:23;100775.94;;;27.48;60.00
50250;BME280;36133;42.522;27.456;2022-08-19T03:08:50;100622.41;;;25.92;62.05
50250;BME280;36133;42.522;27.456;2022-08-19T03:11:22;100691.22;;;26.56;62.14
50250;BME280;36133;42.522;27.456;2022-08-19T03:13:48;100786.06;;;27.39;60.76
50250;BME280;36133;42.522;27.456;2022-08-19T03:16:22;100672.69;;;25.99;62.43
50250;BME280;36133;42.522;27.456;2022-08-19T03:18:48;100525.41;;;25.59;61.63
50250;BME280;36133;42.522;27.456;2022-08-19T03:21:16;100585.56;;;25.73;61.42
50250;BME280;36133;42.522;27.456;2022-08-19T03:23:42;100609.44;;;26.64;59.50
50250;BME280;36133;42.522;27.456;2022-08-19T03:26:07;100545.25;;;26.14;59.98
50250;BME280;36133;42.522;27.456;2022-08-19T03:28:33;100752.72;;;26.77;61.55
50250;BME280;36133;42.522;27.456;2022-08-19T03:31:03;100492.66;;;25.13;62.20
50250;BME280;36133;42.522;27.456;2022-08-19T03:33:30;100747.91;;;27.31;60.57
50250;BME280;36133;42.522;27.456;2022-08-19T03:36:04;100735.72;;;27.51;59.13
50250;BME280;36133;42.522;27.456;2022-08-19T03:38:32;100794.09;;;27.97;58.91
50250;BME280;36133;42.522;27.456;2022-08-19T03:41:02;100620.41;;;26.93;59.20
50250;BME280;36133;42.522;27.456;2022-08-19T03:43:28;100785.09;;;28.05;58.58
50250;BME280;36133;42.522;27.456;2022-08-19T03:46:06;100791.44;;;28.24;58.22
50250;BME280;36133;42.522;27.456;2022-08-19T03:48:32;100830.41;;;28.52;57.89
50250;BME280;36133;42.522;27.456;2022-08-19T03:50:59;100812.38;;;28.36;57.27
50250;BME280;36133;42.522;27.456;2022-08-19T03:53:26;100824.31;;;27.98;59.62
50250;BME280;36133;42.522;27.456;2022-08-19T03:55:52;100785.44;;;27.61;58.88
50250;BME280;36133;42.522;27.456;2022-08-19T03:58:19;100843.75;;;27.80;59.85
50250;BME280;36133;42.522;27.456;2022-08-19T04:00:44;100800.19;;;27.99;58.14
50250;BME280;36133;42.522;27.456;2022-08-19T04:03:10;100787.56;;;27.50;59.65
50250;BME280;36133;42.522;27.456;2022-08-19T04:05:35;100779.44;;;27.16;60.41
50250;BME280;36133;42.522;27.456;2022-08-19T04:08:03;100642.72;;;26.35;60.72
50250;BME280;36133;42.522;27.456;2022-08-19T04:10:35;100724.53;;;26.94;59.50
50250;BME280;36133;42.522;27.456;2022-08-19T04:13:02;100853.63;;;27.43;59.97
50250;BME280;36133;42.522;27.456;2022-08-19T04:15:29;100808.28;;;27.34;59.17
50250;BME280;36133;42.522;27.456;2022-08-19T04:17:56;100822.47;;;27.08;59.92
50250;BME280;36133;42.522;27.456;2022-08-19T04:20:21;100819.03;;;27.17;59.99
50250;BME280;36133;42.522;27.456;2022-08-19T04:22:47;100857.03;;;27.59;59.95
50250;BME280;36133;42.522;27.456;2022-08-19T04:25:12;100762.28;;;27.14;59.14
50250;BME280;36133;42.522;27.456;2022-08-19T04:27:38;100615.84;;;26.36;59.20
50250;BME280;36133;42.522;27.456;2022-08-19T04:30:04;100859.09;;;27.48;60.35
50250;BME280;36133;42.522;27.456;2022-08-19T04:32:29;100722.94;;;26.64;59.91
50250;BME280;36133;42.522;27.456;2022-08-19T04:34:57;100743.03;;;26.99;59.06
50250;BME280;36133;42.522;27.456;2022-08-19T04:37:25;100631.59;;;26.40;58.65
50250;BME280;36133;42.522;27.456;2022-08-19T04:39:52;100806.16;;;28.06;56.97
50250;BME280;36133;42.522;27.456;2022-08-19T04:42:35;100692.25;;;27.46;56.46
50250;BME280;36133;42.522;27.456;2022-08-19T04:45:06;100824.97;;;29.48;53.32
50250;BME280;36133;42.522;27.456;2022-08-19T04:47:31;100806.50;;;29.52;52.13
50250;BME280;36133;42.522;27.456;2022-08-19T04:49:58;100655.75;;;28.78;51.91
50250;BME280;36133;42.522;27.456;2022-08-19T04:52:24;100774.41;;;30.04;49.56
50250;BME280;36133;42.522;27.456;2022-08-19T04:54:49;100832.19;;;29.85;49.95
50250;BME280;36133;42.522;27.456;2022-08-19T04:57:15;100671.47;;;29.46;49.06
50250;BME280;36133;42.522;27.456;2022-08-19T04:59:40;100657.38;;;29.87;47.09
50250;BME280;36133;42.522;27.456;2022-08-19T05:02:08;100794.09;;;30.61;46.26
50250;BME280;36133;42.522;27.456;2022-08-19T05:04:35;100865.00;;;31.40;46.25
50250;BME280;36133;42.522;27.456;2022-08-19T05:07:04;100567.41;;;30.40;44.32
50250;BME280;36133;42.522;27.456;2022-08-19T05:09:30;100696.31;;;30.32;46.40
50250;BME280;36133;42.522;27.456;2022-08-19T05:11:55;100865.97;;;30.73;48.17
50250;BME280;36133;42.522;27.456;2022-08-19T05:14:21;100639.59;;;28.94;49.13
50250;BME280;36133;42.522;27.456;2022-08-19T05:16:46;100844.44;;;29.48;49.99
50250;BME280;36133;42.522;27.456;2022-08-19T05:19:13;100584.28;;;28.01;50.05
50250;BME280;36133;42.522;27.456;2022-08-19T05:21:59;100711.31;;;28.37;51.28
50250;BME280;36133;42.522;27.456;2022-08-19T05:24:43;100858.53;;;29.24;52.03
50250;BME280;36133;42.522;27.456;2022-08-19T05:27:09;100853.66;;;29.43;51.92
50250;BME280;36133;42.522;27.456;2022-08-19T05:29:34;100862.91;;;29.80;50.96
50250;BME280;36133;42.522;27.456;2022-08-19T05:32:02;100816.63;;;30.20;49.04
50250;BME280;36133;42.522;27.456;2022-08-19T05:34:27;100838.44;;;29.91;49.85
50250;BME280;36133;42.522;27.456;2022-08-19T05:36:56;100836.31;;;30.69;48.15
50250;BME280;36133;42.522;27.456;2022-08-19T05:39:24;100813.38;;;30.49;48.01
50250;BME280;36133;42.522;27.456;2022-08-19T05:41:57;100761.28;;;30.81;46.87
50250;BME280;36133;42.522;27.456;2022-08-19T05:44:27;100747.16;;;30.69;46.60
50250;BME280;36133;42.522;27.456;2022-08-19T05:46:57;100758.63;;;30.67;46.48
50250;BME280;36133;42.522;27.456;2022-08-19T05:49:25;100879.78;;;31.49;47.32
50250;BME280;36133;42.522;27.456;2022-08-19T05:51:51;100751.59;;;32.22;43.78
50250;BME280;36133;42.522;27.456;2022-08-19T05:54:17;100690.41;;;31.56;44.25
50250;BME280;36133;42.522;27.456;2022-08-19T05:56:44;100880.06;;;32.04;45.67
50250;BME280;36133;42.522;27.456;2022-08-19T05:59:13;100868.88;;;32.74;44.74
50250;BME280;36133;42.522;27.456;2022-08-19T06:01:40;100778.69;;;32.21;44.18
50250;BME280;36133;42.522;27.456;2022-08-19T06:04:07;100802.88;;;32.81;43.72
50250;BME280;36133;42.522;27.456;2022-08-19T06:06:34;100714.25;;;33.20;42.04
50250;BME280;36133;42.522;27.456;2022-08-19T06:09:04;100630.19;;;31.55;43.08
50250;BME280;36133;42.522;27.456;2022-08-19T06:11:38;100855.09;;;33.07;43.19
50250;BME280;36133;42.522;27.456;2022-08-19T06:14:10;100762.50;;;33.79;39.50
50250;BME280;36133;42.522;27.456;2022-08-19T06:16:38;100853.09;;;35.28;36.77
50250;BME280;36133;42.522;27.456;2022-08-19T06:19:06;100676.03;;;34.69;35.87
50250;BME280;36133;42.522;27.456;2022-08-19T06:21:34;100692.16;;;33.69;37.71
50250;BME280;36133;42.522;27.456;2022-08-19T06:24:07;100709.09;;;34.05;37.10
50250;BME280;36133;42.522;27.456;2022-08-19T06:26:39;100720.88;;;34.44;36.50
50250;BME280;36133;42.522;27.456;2022-08-19T06:29:06;100837.63;;;35.71;36.00
50250;BME280;36133;42.522;27.456;2022-08-19T06:31:34;100476.13;;;33.09;35.70
50250;BME280;36133;42.522;27.456;2022-08-19T06:34:01;100602.47;;;33.77;36.00
50250;BME280;36133;42.522;27.456;2022-08-19T06:36:33;100837.81;;;34.68;37.10
50250;BME280;36133;42.522;27.456;2022-08-19T06:39:13;100721.75;;;33.70;37.30
50250;BME280;36133;42.522;27.456;2022-08-19T06:41:50;100757.09;;;34.61;36.44
50250;BME280;36133;42.522;27.456;2022-08-19T06:44:20;100683.41;;;34.03;36.22
50250;BME280;36133;42.522;27.456;2022-08-19T06:47:00;100495.34;;;33.11;35.63
50250;BME280;36133;42.522;27.456;2022-08-19T06:49:32;100462.97;;;32.68;35.95
50250;BME280;36133;42.522;27.456;2022-08-19T06:52:04;100479.16;;;33.62;34.92
50250;BME280;36133;42.522;27.456;2022-08-19T06:54:33;100481.56;;;33.39;35.18
50250;BME280;36133;42.522;27.456;2022-08-19T06:57:07;100699.63;;;35.16;34.38
50250;BME280;36133;42.522;27.456;2022-08-19T06:59:34;100582.03;;;34.47;34.86
50250;BME280;36133;42.522;27.456;2022-08-19T07:02:03;100692.97;;;34.84;34.62
50250;BME280;36133;42.522;27.456;2022-08-19T07:04:31;100626.38;;;34.32;34.81
50250;BME280;36133;42.522;27.456;2022-08-19T07:07:00;100780.19;;;35.68;35.05
50250;BME280;36133;42.522;27.456;2022-08-19T07:09:26;100705.06;;;35.37;34.41
50250;BME280;36133;42.522;27.456;2022-08-19T07:11:56;100711.19;;;35.15;34.61
50250;BME280;36133;42.522;27.456;2022-08-19T07:14:26;100521.78;;;34.16;34.23
50250;BME280;36133;42.522;27.456;2022-08-19T07:16:54;100495.56;;;33.96;34.45
50250;BME280;36133;42.522;27.456;2022-08-19T07:19:23;100605.59;;;35.63;32.92
50250;BME280;36133;42.522;27.456;2022-08-19T07:21:51;100698.69;;;36.52;32.72
50250;BME280;36133;42.522;27.456;2022-08-19T07:24:19;100801.44;;;37.44;32.27
50250;BME280;36133;42.522;27.456;2022-08-19T07:26:45;100507.41;;;35.98;31.82
50250;BME280;36133;42.522;27.456;2022-08-19T07:29:12;100460.03;;;35.80;31.32
50250;BME280;36133;42.522;27.456;2022-08-19T07:31:38;100464.66;;;36.04;31.32
50250;BME280;36133;42.522;27.456;2022-08-19T07:34:06;100503.56;;;37.31;29.76
50250;BME280;36133;42.522;27.456;2022-08-19T07:36:34;100476.34;;;36.96;29.93
50250;BME280;36133;42.522;27.456;2022-08-19T07:39:05;100706.41;;;38.64;29.47
50250;BME280;36133;42.522;27.456;2022-08-19T07:41:43;100489.75;;;37.68;28.63
50250;BME280;36133;42.522;27.456;2022-08-19T07:44:12;100624.41;;;38.77;28.22
50250;BME280;36133;42.522;27.456;2022-08-19T07:46:41;100631.25;;;37.61;30.02
50250;BME280;36133;42.522;27.456;2022-08-19T07:49:13;100661.69;;;38.40;29.08
50250;BME280;36133;42.522;27.456;2022-08-19T07:51:50;100750.22;;;38.58;29.42
50250;BME280;36133;42.522;27.456;2022-08-19T07:54:18;100486.72;;;37.76;28.18
50250;BME280;36133;42.522;27.456;2022-08-19T07:56:47;100584.16;;;38.27;27.73
50250;BME280;36133;42.522;27.456;2022-08-19T07:59:17;100808.53;;;39.49;28.44
50250;BME280;36133;42.522;27.456;2022-08-19T08:01:47;100685.72;;;37.69;29.51
50250;BME280;36133;42.522;27.456;2022-08-19T08:04:13;100562.66;;;37.11;29.37
50250;BME280;36133;42.522;27.456;2022-08-19T08:06:58;100654.00;;;38.37;28.41
50250;BME280;36133;42.522;27.456;2022-08-19T08:09:44;100446.94;;;36.93;28.46
50250;BME280;36133;42.522;27.456;2022-08-19T08:12:16;100437.56;;;36.12;29.69
50250;BME280;36133;42.522;27.456;2022-08-19T08:14:51;100449.97;;;36.65;29.20
50250;BME280;36133;42.522;27.456;2022-08-19T08:17:24;100684.31;;;38.21;28.98
50250;BME280;36133;42.522;27.456;2022-08-19T08:19:51;100436.88;;;36.92;29.27
50250;BME280;36133;42.522;27.456;2022-08-19T08:22:27;100378.66;;;35.17;30.77
50250;BME280;36133;42.522;27.456;2022-08-19T08:25:19;100420.91;;;36.38;29.58
50250;BME280;36133;42.522;27.456;2022-08-19T08:27:48;100647.44;;;38.29;29.09
50250;BME280;36133;42.522;27.456;2022-08-19T08:30:29;100488.34;;;38.87;26.84
50250;BME280;36133;42.522;27.456;2022-08-19T08:33:00;100563.38;;;39.55;26.82
50250;BME280;36133;42.522;27.456;2022-08-19T08:35:26;100355.66;;;36.49;28.11
50250;BME280;36133;42.522;27.456;2022-08-19T08:37:53;100626.84;;;37.06;29.95
50250;BME280;36133;42.522;27.456;2022-08-19T08:43:35;100801.53;;;40.67;26.94
50250;BME280;36133;42.522;27.456;2022-08-19T08:46:12;100663.88;;;40.85;25.72
50250;BME280;36133;42.522;27.456;2022-08-19T08:51:14;100402.34;;;36.53;28.63
50250;BME280;36133;42.522;27.456;2022-08-19T08:53:46;100574.53;;;39.48;26.78
50250;BME280;36133;42.522;27.456;2022-08-19T08:56:13;100668.69;;;39.96;26.61
50250;BME280;36133;42.522;27.456;2022-08-19T08:58:46;100665.50;;;39.61;26.66
50250;BME280;36133;42.522;27.456;2022-08-19T09:01:16;100767.47;;;40.97;26.06
50250;BME280;36133;42.522;27.456;2022-08-19T09:04:02;100447.47;;;39.96;24.56
50250;BME280;36133;42.522;27.456;2022-08-19T09:09:40;100666.28;;;41.60;24.43
50250;BME280;36133;42.522;27.456;2022-08-19T09:12:39;100792.31;;;41.91;24.57
50250;BME280;36133;42.522;27.456;2022-08-19T09:15:15;100550.28;;;40.87;24.05
50250;BME280;36133;42.522;27.456;2022-08-19T09:17:43;100548.97;;;41.96;22.85
50250;BME280;36133;42.522;27.456;2022-08-19T09:22:42;100450.41;;;39.59;25.15
50250;BME280;36133;42.522;27.456;2022-08-19T09:25:17;100587.44;;;40.23;25.22
50250;BME280;36133;42.522;27.456;2022-08-19T09:27:44;100370.84;;;40.01;24.40
50250;BME280;36133;42.522;27.456;2022-08-19T09:30:22;100564.28;;;41.60;23.26
50250;BME280;36133;42.522;27.456;2022-08-19T09:32:50;100467.75;;;40.05;24.88
50250;BME280;36133;42.522;27.456;2022-08-19T09:35:20;100405.59;;;40.95;23.29
50250;BME280;36133;42.522;27.456;2022-08-19T09:37:48;100518.91;;;42.59;22.19
50250;BME280;36133;42.522;27.456;2022-08-19T09:40:14;100435.28;;;39.84;24.45
50250;BME280;36133;42.522;27.456;2022-08-19T09:42:44;100801.97;;;41.72;24.91
50250;BME280;36133;42.522;27.456;2022-08-19T09:45:12;100549.78;;;41.86;23.02
50250;BME280;36133;42.522;27.456;2022-08-19T09:47:41;100488.13;;;42.47;21.92
50250;BME280;36133;42.522;27.456;2022-08-19T09:50:09;100576.09;;;41.69;23.27
50250;BME280;36133;42.522;27.456;2022-08-19T09:52:39;100657.69;;;41.38;24.05
50250;BME280;36133;42.522;27.456;2022-08-19T09:55:10;100795.75;;;41.55;24.40
50250;BME280;36133;42.522;27.456;2022-08-19T09:57:36;100688.84;;;41.35;24.09
50250;BME280;36133;42.522;27.456;2022-08-19T10:00:08;100459.19;;;40.56;23.56
50250;BME280;36133;42.522;27.456;2022-08-19T10:02:34;100651.28;;;43.41;21.64
50250;BME280;36133;42.522;27.456;2022-08-19T10:05:08;100471.59;;;42.13;22.40
50250;BME280;36133;42.522;27.456;2022-08-19T10:07:52;100477.31;;;38.18;28.47
50250;BME280;36133;42.522;27.456;2022-08-19T10:10:18;100790.97;;;41.05;28.02
50250;BME280;36133;42.522;27.456;2022-08-19T10:12:43;100671.28;;;38.35;29.36
50250;BME280;36133;42.522;27.456;2022-08-19T10:15:12;100415.66;;;35.70;31.21
50250;BME280;36133;42.522;27.456;2022-08-19T10:17:38;100611.84;;;37.98;30.29
50250;BME280;36133;42.522;27.456;2022-08-19T10:20:04;100413.03;;;35.14;32.39
50250;BME280;36133;42.522;27.456;2022-08-19T10:22:30;100817.72;;;37.04;32.98
50250;BME280;36133;42.522;27.456;2022-08-19T10:24:56;100809.44;;;38.58;30.83
50250;BME280;36133;42.522;27.456;2022-08-19T10:27:22;100365.72;;;35.95;30.18
50250;BME280;36133;42.522;27.456;2022-08-19T10:29:49;100574.06;;;37.57;30.08
50250;BME280;36133;42.522;27.456;2022-08-19T10:32:17;100610.38;;;38.80;28.84
50250;BME280;36133;42.522;27.456;2022-08-19T10:34:43;100377.94;;;36.38;30.10
50250;BME280;36133;42.522;27.456;2022-08-19T10:37:08;100602.84;;;36.42;31.47
50250;BME280;36133;42.522;27.456;2022-08-19T10:39:35;100598.31;;;36.88;31.20
50250;BME280;36133;42.522;27.456;2022-08-19T10:42:06;100497.66;;;38.61;28.57
50250;BME280;36133;42.522;27.456;2022-08-19T10:44:33;100649.59;;;39.49;28.08
50250;BME280;36133;42.522;27.456;2022-08-19T10:47:08;100513.34;;;38.88;27.51
50250;BME280;36133;42.522;27.456;2022-08-19T10:49:34;100461.00;;;41.18;24.87
50250;BME280;36133;42.522;27.456;2022-08-19T10:52:20;100715.03;;;43.25;24.33
50250;BME280;36133;42.522;27.456;2022-08-19T10:55:17;100387.81;;;39.09;26.87
50250;BME280;36133;42.522;27.456;2022-08-19T10:58:14;100793.91;;;41.81;27.92
50250;BME280;36133;42.522;27.456;2022-08-19T11:00:40;100531.16;;;40.66;28.21
50250;BME280;36133;42.522;27.456;2022-08-19T11:03:07;100410.03;;;37.64;30.91
50250;BME280;36133;42.522;27.456;2022-08-19T11:05:33;100447.19;;;37.27;31.26
50250;BME280;36133;42.522;27.456;2022-08-19T11:08:02;100823.72;;;38.46;32.95
50250;BME280;36133;42.522;27.456;2022-08-19T11:10:28;100521.09;;;34.96;36.72
50250;BME280;36133;42.522;27.456;2022-08-19T11:12:53;100427.13;;;36.86;33.63
50250;BME280;36133;42.522;27.456;2022-08-19T11:15:23;100297.25;;;35.33;35.65
50250;BME280;36133;42.522;27.456;2022-08-19T11:17:51;100477.19;;;37.39;34.06
50250;BME280;36133;42.522;27.456;2022-08-19T11:20:17;100742.91;;;38.54;33.43
50250;BME280;36133;42.522;27.456;2022-08-19T11:22:43;100768.94;;;37.15;35.11
50250;BME280;36133;42.522;27.456;2022-08-19T11:25:09;100415.50;;;37.30;32.66
50250;BME280;36133;42.522;27.456;2022-08-19T11:27:43;100460.72;;;38.13;32.56
50250;BME280;36133;42.522;27.456;2022-08-19T11:30:11;100593.03;;;38.78;32.95
50250;BME280;36133;42.522;27.456;2022-08-19T11:32:41;100650.66;;;39.37;32.95
50250;BME280;36133;42.522;27.456;2022-08-19T11:35:07;100444.47;;;39.26;31.73
50250;BME280;36133;42.522;27.456;2022-08-19T11:37:42;100515.22;;;37.98;32.51
50250;BME280;36133;42.522;27.456;2022-08-19T11:40:08;100539.03;;;37.35;33.91
50250;BME280;36133;42.522;27.456;2022-08-19T11:42:34;100562.88;;;38.06;32.82
50250;BME280;36133;42.522;27.456;2022-08-19T11:45:28;100352.13;;;37.40;32.42
50250;BME280;36133;42.522;27.456;2022-08-19T11:47:55;100404.63;;;38.31;31.10
50250;BME280;36133;42.522;27.456;2022-08-19T11:50:24;100623.53;;;39.25;31.02
50250;BME280;36133;42.522;27.456;2022-08-19T11:52:53;100651.19;;;40.17;30.16
50250;BME280;36133;42.522;27.456;2022-08-19T11:55:22;100595.13;;;39.85;29.15
50250;BME280;36133;42.522;27.456;2022-08-19T11:57:48;100648.22;;;42.25;27.21
50250;BME280;36133;42.522;27.456;2022-08-19T12:00:16;100561.44;;;42.77;25.87
50250;BME280;36133;42.522;27.456;2022-08-19T12:02:41;100496.94;;;42.81;25.22
50250;BME280;36133;42.522;27.456;2022-08-19T12:05:08;100599.44;;;43.15;25.56
50250;BME280;36133;42.522;27.456;2022-08-19T12:07:37;100772.28;;;42.78;27.01
50250;BME280;36133;42.522;27.456;2022-08-19T12:10:06;100547.34;;;40.69;28.17
50250;BME280;36133;42.522;27.456;2022-08-19T12:12:34;100772.66;;;43.19;26.88
50250;BME280;36133;42.522;27.456;2022-08-19T12:15:03;100777.09;;;42.41;27.64
50250;BME280;36133;42.522;27.456;2022-08-19T12:17:34;100544.50;;;41.77;26.60
50250;BME280;36133;42.522;27.456;2022-08-19T12:20:02;100581.53;;;41.15;27.24
50250;BME280;36133;42.522;27.456;2022-08-19T12:22:31;100386.81;;;42.51;24.66
50250;BME280;36133;42.522;27.456;2022-08-19T12:24:58;100379.34;;;41.20;25.53
50250;BME280;36133;42.522;27.456;2022-08-19T12:27:24;100766.16;;;43.11;25.89
50250;BME280;36133;42.522;27.456;2022-08-19T12:29:50;100359.78;;;39.26;27.42
50250;BME280;36133;42.522;27.456;2022-08-19T12:32:16;100549.00;;;40.74;27.12
50250;BME280;36133;42.522;27.456;2022-08-19T12:34:45;100615.78;;;41.97;26.06
50250;BME280;36133;42.522;27.456;2022-08-19T12:37:12;100749.88;;;42.16;26.97
50250;BME280;36133;42.522;27.456;2022-08-19T12:39:41;100489.00;;;41.44;25.86
50250;BME280;36133;42.522;27.456;2022-08-19T12:42:08;100350.91;;;39.83;25.67
50250;BME280;36133;42.522;27.456;2022-08-19T12:44:35;100533.50;;;42.65;24.11
50250;BME280;36133;42.522;27.456;2022-08-19T12:47:01;100401.47;;;39.44;26.70
50250;BME280;36133;42.522;27.456;2022-08-19T12:49:29;100527.91;;;39.61;27.15
50250;BME280;36133;42.522;27.456;2022-08-19T12:51:56;100553.59;;;39.86;26.78
50250;BME280;36133;42.522;27.456;2022-08-19T12:54:23;100639.25;;;40.38;27.50
50250;BME280;36133;42.522;27.456;2022-08-19T12:56:49;100588.16;;;41.62;25.82
50250;BME280;36133;42.522;27.456;2022-08-19T12:59:14;100674.97;;;42.59;25.03
50250;BME280;36133;42.522;27.456;2022-08-19T13:01:43;100505.09;;;41.08;25.17